createdAt,value
2018-10-17T00:00:33.433Z,1014.99
2018-10-17T00:01:33.413Z,1014.99
2018-10-17T00:02:33.396Z,1015.00
2018-10-17T00:03:33.375Z,1014.94
2018-10-17T00:04:33.356Z,1014.94
2018-10-17T00:05:33.333Z,1014.92
2018-10-17T00:06:33.310Z,1014.89
2018-10-17T00:07:33.290Z,1014.90
2018-10-17T00:08:33.270Z,1014.90
2018-10-17T00:09:33.251Z,1014.88
2018-10-17T00:10:33.226Z,1014.87
2018-10-17T00:11:33.205Z,1014.84
2018-10-17T00:12:33.185Z,1014.85
2018-10-17T00:13:33.167Z,1014.80
2018-10-17T00:14:33.145Z,1014.83
2018-10-17T00:15:33.123Z,1014.77
2018-10-17T00:16:33.107Z,1014.74
2018-10-17T00:17:33.079Z,1014.71
2018-10-17T00:18:33.064Z,1014.70
2018-10-17T00:19:33.042Z,1014.69
2018-10-17T00:20:33.036Z,1014.68
2018-10-17T00:21:33.000Z,1014.67
2018-10-17T00:22:32.980Z,1014.65
2018-10-17T00:23:32.961Z,1014.66
2018-10-17T00:24:32.938Z,1014.68
2018-10-17T00:25:32.917Z,1014.69
2018-10-17T00:26:32.898Z,1014.71
2018-10-17T00:27:32.876Z,1014.72
2018-10-17T00:28:32.855Z,1014.76
2018-10-17T00:29:32.839Z,1014.75
2018-10-17T00:30:32.811Z,1014.79
2018-10-17T00:31:32.789Z,1014.81
2018-10-17T00:32:32.772Z,1014.85
2018-10-17T00:33:32.755Z,1014.79
2018-10-17T00:34:32.732Z,1014.79
2018-10-17T00:35:32.707Z,1014.80
2018-10-17T00:36:32.688Z,1014.81
2018-10-17T00:37:32.668Z,1014.84
2018-10-17T00:38:32.642Z,1014.87
2018-10-17T00:39:32.622Z,1014.90
2018-10-17T00:40:32.657Z,1014.89
2018-10-17T00:41:32.581Z,1014.87
2018-10-17T00:42:32.564Z,1014.92
2018-10-17T00:43:32.545Z,1014.91
2018-10-17T00:44:32.520Z,1014.93
2018-10-17T00:45:32.504Z,1014.93
2018-10-17T00:46:32.478Z,1014.92
2018-10-17T00:47:32.459Z,1014.91
2018-10-17T00:48:32.440Z,1014.93
2018-10-17T00:49:32.420Z,1014.96
2018-10-17T00:50:32.398Z,1014.95
2018-10-17T00:51:32.375Z,1014.92
2018-10-17T00:52:32.355Z,1014.93
2018-10-17T00:53:32.336Z,1014.94
2018-10-17T00:54:32.316Z,1014.93
2018-10-17T00:55:32.292Z,1014.96
2018-10-17T00:56:32.273Z,1014.95
2018-10-17T00:57:32.251Z,1014.95
2018-10-17T00:58:32.228Z,1014.99
2018-10-17T00:59:32.209Z,1014.97
2018-10-17T01:00:32.187Z,1014.94
2018-10-17T01:01:32.167Z,1014.93
2018-10-17T01:02:32.149Z,1014.99
2018-10-17T01:03:32.123Z,1015.01
2018-10-17T01:04:32.105Z,1015.02
2018-10-17T01:05:32.084Z,1014.99
2018-10-17T01:06:32.063Z,1015.04
2018-10-17T01:07:32.041Z,1015.04
2018-10-17T01:08:32.020Z,1015.02
2018-10-17T01:09:32.001Z,1015.04
2018-10-17T01:10:31.979Z,1015.03
2018-10-17T01:11:31.959Z,1015.03
2018-10-17T01:12:31.939Z,1015.05
2018-10-17T01:13:31.917Z,1015.07
2018-10-17T01:14:31.895Z,1015.04
2018-10-17T01:15:31.875Z,1015.01
2018-10-17T01:16:31.851Z,1015.00
2018-10-17T01:17:31.833Z,1014.97
2018-10-17T01:18:31.813Z,1014.94
2018-10-17T01:19:31.796Z,1014.95
2018-10-17T01:20:31.769Z,1014.94
2018-10-17T01:21:31.754Z,1014.97
2018-10-17T01:22:31.731Z,1014.90
2018-10-17T01:23:31.703Z,1014.97
2018-10-17T01:24:31.685Z,1014.95
2018-10-17T01:25:31.666Z,1014.98
2018-10-17T01:26:31.642Z,1014.99
2018-10-17T01:27:31.623Z,1014.97
2018-10-17T01:28:31.602Z,1014.97
2018-10-17T01:29:31.578Z,1014.93
2018-10-17T01:30:31.559Z,1014.92
2018-10-17T01:31:31.544Z,1014.90
2018-10-17T01:32:31.519Z,1014.83
2018-10-17T01:33:31.497Z,1014.85
2018-10-17T01:34:31.478Z,1014.82
2018-10-17T01:35:31.456Z,1014.82
2018-10-17T01:36:31.433Z,1014.80
2018-10-17T01:37:31.411Z,1014.77
2018-10-17T01:38:31.388Z,1014.81
2018-10-17T01:39:31.370Z,1014.80
2018-10-17T01:40:31.357Z,1014.81
2018-10-17T01:41:31.324Z,1014.75
2018-10-17T01:42:31.309Z,1014.76
2018-10-17T01:43:31.289Z,1014.78
2018-10-17T01:44:31.260Z,1014.76
2018-10-17T01:45:31.242Z,1014.76
2018-10-17T01:46:31.222Z,1014.72
2018-10-17T01:47:31.202Z,1014.72
2018-10-17T01:48:31.176Z,1014.76
2018-10-17T01:49:31.164Z,1014.74
2018-10-17T01:50:31.136Z,1014.73
2018-10-17T01:51:31.115Z,1014.71
2018-10-17T01:52:31.097Z,1014.75
2018-10-17T01:53:31.074Z,1014.74
2018-10-17T01:54:31.052Z,1014.77
2018-10-17T01:55:31.032Z,1014.75
2018-10-17T01:56:31.012Z,1014.73
2018-10-17T01:57:30.986Z,1014.71
2018-10-17T01:58:30.972Z,1014.76
2018-10-17T01:59:30.950Z,1014.71
2018-10-17T02:00:30.928Z,1014.70
2018-10-17T02:01:30.906Z,1014.69
2018-10-17T02:02:30.884Z,1014.72
2018-10-17T02:03:30.864Z,1014.70
2018-10-17T02:04:30.842Z,1014.71
2018-10-17T02:05:30.820Z,1014.71
2018-10-17T02:06:30.798Z,1014.73
2018-10-17T02:07:30.780Z,1014.73
2018-10-17T02:08:30.760Z,1014.71
2018-10-17T02:09:30.738Z,1014.71
2018-10-17T02:10:30.718Z,1014.73
2018-10-17T02:11:30.694Z,1014.72
2018-10-17T02:12:30.674Z,1014.76
2018-10-17T02:13:30.652Z,1014.77
2018-10-17T02:14:30.636Z,1014.80
2018-10-17T02:15:30.615Z,1014.78
2018-10-17T02:16:30.589Z,1014.76
2018-10-17T02:17:30.568Z,1014.76
2018-10-17T02:18:30.553Z,1014.73
2018-10-17T02:19:30.525Z,1014.78
2018-10-17T02:20:30.503Z,1014.79
2018-10-17T02:21:30.491Z,1014.76
2018-10-17T02:22:30.460Z,1014.75
2018-10-17T02:23:30.441Z,1014.78
2018-10-17T02:24:30.419Z,1014.79
2018-10-17T02:25:30.398Z,1014.77
2018-10-17T02:26:30.397Z,1014.77
2018-10-17T02:27:30.358Z,1014.73
2018-10-17T02:28:30.343Z,1014.74
2018-10-17T02:29:30.313Z,1014.77
2018-10-17T02:30:30.292Z,1014.77
2018-10-17T02:31:30.277Z,1014.74
2018-10-17T02:32:30.251Z,1014.78
2018-10-17T02:33:30.235Z,1014.77
2018-10-17T02:34:30.210Z,1014.79
2018-10-17T02:35:30.183Z,1014.81
2018-10-17T02:36:30.168Z,1014.83
2018-10-17T02:37:30.148Z,1014.79
2018-10-17T02:38:30.129Z,1014.78
2018-10-17T02:39:30.129Z,1014.75
2018-10-17T02:40:30.081Z,1014.76
2018-10-17T02:41:30.060Z,1014.74
2018-10-17T02:42:30.058Z,1014.76
2018-10-17T02:43:30.018Z,1014.71
2018-10-17T02:44:29.995Z,1014.74
2018-10-17T02:45:29.976Z,1014.71
2018-10-17T02:46:29.957Z,1014.69
2018-10-17T02:47:29.935Z,1014.69
2018-10-17T02:48:29.912Z,1014.70
2018-10-17T02:49:29.889Z,1014.71
2018-10-17T02:50:29.873Z,1014.72
2018-10-17T02:51:29.854Z,1014.71
2018-10-17T02:52:29.826Z,1014.74
2018-10-17T02:53:29.806Z,1014.72
2018-10-17T02:54:29.782Z,1014.73
2018-10-17T02:55:29.771Z,1014.75
2018-10-17T02:56:29.743Z,1014.72
2018-10-17T02:57:29.725Z,1014.74
2018-10-17T02:58:29.694Z,1014.76
2018-10-17T02:59:29.680Z,1014.77
2018-10-17T03:00:29.658Z,1014.77
2018-10-17T03:01:29.649Z,1014.73
2018-10-17T03:02:29.617Z,1014.73
2018-10-17T03:03:29.596Z,1014.75
2018-10-17T03:04:29.581Z,1014.77
2018-10-17T03:05:29.554Z,1014.75
2018-10-17T03:06:29.530Z,1014.78
2018-10-17T03:07:29.510Z,1014.73
2018-10-17T03:08:29.497Z,1014.71
2018-10-17T03:09:29.465Z,1014.71
2018-10-17T03:10:29.446Z,1014.71
2018-10-17T03:11:29.425Z,1014.67
2018-10-17T03:12:29.402Z,1014.70
2018-10-17T03:13:29.382Z,1014.71
2018-10-17T03:14:29.357Z,1014.68
2018-10-17T03:15:29.337Z,1014.69
2018-10-17T03:16:29.326Z,1014.66
2018-10-17T03:17:29.299Z,1014.68
2018-10-17T03:18:29.271Z,1014.65
2018-10-17T03:19:29.256Z,1014.64
2018-10-17T03:20:29.233Z,1014.63
2018-10-17T03:21:29.213Z,1014.60
2018-10-17T03:22:29.190Z,1014.61
2018-10-17T03:23:29.172Z,1014.64
2018-10-17T03:24:29.152Z,1014.64
2018-10-17T03:25:29.123Z,1014.65
2018-10-17T03:26:29.104Z,1014.70
2018-10-17T03:27:29.084Z,1014.71
2018-10-17T03:28:29.073Z,1014.72
2018-10-17T03:29:29.040Z,1014.71
2018-10-17T03:30:29.018Z,1014.74
2018-10-17T03:31:29.118Z,1014.73
2018-10-17T03:32:28.979Z,1014.70
2018-10-17T03:33:28.967Z,1014.74
2018-10-17T03:34:28.933Z,1014.69
2018-10-17T03:35:28.914Z,1014.72
2018-10-17T03:36:28.891Z,1014.73
2018-10-17T03:37:28.868Z,1014.78
2018-10-17T03:38:28.852Z,1014.79
2018-10-17T03:39:28.828Z,1014.77
2018-10-17T03:40:28.807Z,1014.76
2018-10-17T03:41:28.783Z,1014.78
2018-10-17T03:42:28.759Z,1014.78
2018-10-17T03:43:28.750Z,1014.81
2018-10-17T03:44:28.726Z,1014.82
2018-10-17T03:45:28.704Z,1014.84
2018-10-17T03:46:28.676Z,1014.84
2018-10-17T03:47:28.654Z,1014.91
2018-10-17T03:48:28.638Z,1014.85
2018-10-17T03:49:28.631Z,1014.84
2018-10-17T03:50:28.581Z,1014.86
2018-10-17T03:51:28.570Z,1014.85
2018-10-17T03:52:28.553Z,1014.85
2018-10-17T03:53:28.538Z,1014.82
2018-10-17T03:54:28.510Z,1014.86
2018-10-17T03:55:28.486Z,1014.88
2018-10-17T03:56:28.469Z,1014.84
2018-10-17T03:57:28.441Z,1014.84
2018-10-17T03:58:28.420Z,1014.87
2018-10-17T03:59:28.430Z,1014.85
2018-10-17T04:00:28.380Z,1014.82
2018-10-17T04:01:28.359Z,1014.83
2018-10-17T04:02:28.335Z,1014.89
2018-10-17T04:03:28.317Z,1014.94
2018-10-17T04:04:28.294Z,1014.93
2018-10-17T04:05:28.269Z,1014.94
2018-10-17T04:06:28.251Z,1014.94
2018-10-17T04:07:28.227Z,1014.95
2018-10-17T04:08:28.208Z,1014.98
2018-10-17T04:09:28.187Z,1014.95
2018-10-17T04:10:28.166Z,1014.98
2018-10-17T04:11:28.140Z,1014.99
2018-10-17T04:12:28.125Z,1015.00
2018-10-17T04:13:28.101Z,1014.98
2018-10-17T04:14:28.077Z,1015.02
2018-10-17T04:15:28.057Z,1015.01
2018-10-17T04:16:28.036Z,1014.97
2018-10-17T04:17:28.017Z,1015.02
2018-10-17T04:18:27.991Z,1014.95
2018-10-17T04:19:27.971Z,1014.97
2018-10-17T04:20:27.955Z,1014.98
2018-10-17T04:21:27.921Z,1014.97
2018-10-17T04:22:27.967Z,1014.96
2018-10-17T04:23:27.887Z,1014.95
2018-10-17T04:24:27.864Z,1014.95
2018-10-17T04:25:27.847Z,1014.97
2018-10-17T04:26:27.824Z,1014.96
2018-10-17T04:27:27.805Z,1014.96
2018-10-17T04:28:27.777Z,1014.98
2018-10-17T04:29:27.756Z,1015.01
2018-10-17T04:30:27.733Z,1014.97
2018-10-17T04:31:27.713Z,1014.98
2018-10-17T04:32:27.693Z,1014.98
2018-10-17T04:33:27.671Z,1014.98
2018-10-17T04:34:27.648Z,1014.95
2018-10-17T04:35:27.629Z,1014.97
2018-10-17T04:36:27.606Z,1014.98
2018-10-17T04:37:27.582Z,1014.95
2018-10-17T04:38:27.577Z,1014.98
2018-10-17T04:39:27.542Z,1015.00
2018-10-17T04:40:27.520Z,1014.94
2018-10-17T04:41:27.497Z,1014.93
2018-10-17T04:42:27.479Z,1014.98
2018-10-17T04:43:27.459Z,1014.98
2018-10-17T04:44:27.432Z,1014.96
2018-10-17T04:45:27.412Z,1015.02
2018-10-17T04:46:27.390Z,1014.98
2018-10-17T04:47:27.392Z,1014.99
2018-10-17T04:48:27.348Z,1015.01
2018-10-17T04:49:27.331Z,1014.98
2018-10-17T04:50:27.304Z,1014.98
2018-10-17T04:51:27.285Z,1014.99
2018-10-17T04:52:27.264Z,1015.01
2018-10-17T04:53:27.242Z,1014.98
2018-10-17T04:54:27.220Z,1014.96
2018-10-17T04:55:27.201Z,1015.01
2018-10-17T04:56:27.176Z,1015.01
2018-10-17T04:57:27.155Z,1014.99
2018-10-17T04:58:27.134Z,1015.00
2018-10-17T04:59:27.110Z,1015.03
2018-10-17T05:00:27.093Z,1015.04
2018-10-17T05:01:27.070Z,1015.05
2018-10-17T05:02:27.055Z,1015.04
2018-10-17T05:03:27.026Z,1015.02
2018-10-17T05:04:27.090Z,1015.05
2018-10-17T05:05:26.984Z,1015.07
2018-10-17T05:06:26.962Z,1015.05
2018-10-17T05:07:26.988Z,1015.05
2018-10-17T05:08:26.923Z,1015.09
2018-10-17T05:09:26.904Z,1015.06
2018-10-17T05:10:26.879Z,1015.09
2018-10-17T05:11:26.856Z,1015.08
2018-10-17T05:12:26.834Z,1015.09
2018-10-17T05:13:26.814Z,1015.13
2018-10-17T05:14:26.796Z,1015.05
2018-10-17T05:15:26.768Z,1015.09
2018-10-17T05:16:26.748Z,1015.11
2018-10-17T05:17:26.726Z,1015.14
2018-10-17T05:18:26.700Z,1015.15
2018-10-17T05:19:26.687Z,1015.22
2018-10-17T05:20:26.660Z,1015.21
2018-10-17T05:21:26.637Z,1015.24
2018-10-17T05:22:26.616Z,1015.23
2018-10-17T05:23:26.594Z,1015.22
2018-10-17T05:24:26.574Z,1015.30
2018-10-17T05:25:26.562Z,1015.24
2018-10-17T05:26:26.532Z,1015.24
2018-10-17T05:27:26.514Z,1015.28
2018-10-17T05:28:26.486Z,1015.26
2018-10-17T05:29:26.466Z,1015.26
2018-10-17T05:30:26.452Z,1015.27
2018-10-17T05:31:26.426Z,1015.32
2018-10-17T05:32:26.400Z,1015.27
2018-10-17T05:33:26.379Z,1015.33
2018-10-17T05:34:26.362Z,1015.28
2018-10-17T05:35:26.334Z,1015.26
2018-10-17T05:36:26.314Z,1015.31
2018-10-17T05:37:26.301Z,1015.29
2018-10-17T05:38:26.272Z,1015.34
2018-10-17T05:39:26.260Z,1015.34
2018-10-17T05:40:26.228Z,1015.36
2018-10-17T05:41:26.205Z,1015.39
2018-10-17T05:42:26.186Z,1015.37
2018-10-17T05:43:26.162Z,1015.38
2018-10-17T05:44:26.186Z,1015.39
2018-10-17T05:45:26.126Z,1015.42
2018-10-17T05:46:26.101Z,1015.43
2018-10-17T05:47:26.076Z,1015.43
2018-10-17T05:48:26.054Z,1015.43
2018-10-17T05:49:26.037Z,1015.45
2018-10-17T05:50:26.012Z,1015.42
2018-10-17T05:51:25.994Z,1015.44
2018-10-17T05:52:25.973Z,1015.39
2018-10-17T05:53:25.946Z,1015.41
2018-10-17T05:54:25.924Z,1015.42
2018-10-17T05:55:25.967Z,1015.39
2018-10-17T05:56:25.883Z,1015.45
2018-10-17T05:57:25.864Z,1015.41
2018-10-17T05:58:25.841Z,1015.41
2018-10-17T05:59:25.820Z,1015.40
2018-10-17T06:00:25.799Z,1015.43
2018-10-17T06:01:25.845Z,1015.41
2018-10-17T06:02:25.882Z,1015.39
2018-10-17T06:03:25.736Z,1015.47
2018-10-17T06:04:25.708Z,1015.45
2018-10-17T06:05:25.691Z,1015.45
2018-10-17T06:06:25.665Z,1015.46
2018-10-17T06:07:25.646Z,1015.47
2018-10-17T06:08:25.632Z,1015.47
2018-10-17T06:09:25.617Z,1015.48
2018-10-17T06:10:25.669Z,1015.48
2018-10-17T06:11:25.565Z,1015.52
2018-10-17T06:12:25.540Z,1015.51
2018-10-17T06:13:25.520Z,1015.54
2018-10-17T06:14:25.496Z,1015.55
2018-10-17T06:15:25.476Z,1015.56
2018-10-17T06:16:25.454Z,1015.58
2018-10-17T06:17:25.467Z,1015.57
2018-10-17T06:18:25.406Z,1015.57
2018-10-17T06:19:25.391Z,1015.60
2018-10-17T06:20:25.368Z,1015.62
2018-10-17T06:21:25.347Z,1015.65
2018-10-17T06:22:25.321Z,1015.67
2018-10-17T06:23:25.314Z,1015.65
2018-10-17T06:24:25.283Z,1015.65
2018-10-17T06:25:25.258Z,1015.68
2018-10-17T06:26:25.234Z,1015.70
2018-10-17T06:27:25.225Z,1015.73
2018-10-17T06:28:25.296Z,1015.71
2018-10-17T06:29:25.171Z,1015.74
2018-10-17T06:30:25.173Z,1015.67
2018-10-17T06:31:25.134Z,1015.65
2018-10-17T06:32:25.110Z,1015.64
2018-10-17T06:33:25.084Z,1015.64
2018-10-17T06:34:25.123Z,1015.62
2018-10-17T06:35:25.041Z,1015.63
2018-10-17T06:36:25.024Z,1015.66
2018-10-17T06:37:24.997Z,1015.66
2018-10-17T06:38:24.977Z,1015.69
2018-10-17T06:39:24.981Z,1015.67
2018-10-17T06:40:24.938Z,1015.64
2018-10-17T06:41:24.914Z,1015.66
2018-10-17T06:42:24.892Z,1015.67
2018-10-17T06:43:24.915Z,1015.66
2018-10-17T06:44:24.852Z,1015.67
2018-10-17T06:45:24.826Z,1015.67
2018-10-17T06:46:24.815Z,1015.65
2018-10-17T06:47:24.790Z,1015.68
2018-10-17T06:48:24.768Z,1015.71
2018-10-17T06:49:24.744Z,1015.68
2018-10-17T06:50:24.722Z,1015.72
2018-10-17T06:51:24.704Z,1015.74
2018-10-17T06:52:24.679Z,1015.74
2018-10-17T06:53:24.658Z,1015.73
2018-10-17T06:54:24.705Z,1015.76
2018-10-17T06:55:24.613Z,1015.79
2018-10-17T06:56:24.600Z,1015.79
2018-10-17T06:57:24.572Z,1015.78
2018-10-17T06:58:24.551Z,1015.84
2018-10-17T06:59:24.536Z,1015.85
2018-10-17T07:00:24.511Z,1015.78
2018-10-17T07:01:24.494Z,1015.78
2018-10-17T07:02:24.562Z,1015.74
2018-10-17T07:03:24.446Z,1015.78
2018-10-17T07:04:24.421Z,1015.78
2018-10-17T07:05:24.402Z,1015.74
2018-10-17T07:06:24.382Z,1015.71
2018-10-17T07:07:24.363Z,1015.73
2018-10-17T07:08:24.391Z,1015.74
2018-10-17T07:09:24.318Z,1015.74
2018-10-17T07:10:24.300Z,1015.73
2018-10-17T07:11:24.280Z,1015.70
2018-10-17T07:12:24.277Z,1015.70
2018-10-17T07:13:24.234Z,1015.70
2018-10-17T07:14:24.211Z,1015.69
2018-10-17T07:15:24.371Z,1015.71
2018-10-17T07:16:24.176Z,1015.71
2018-10-17T07:17:24.153Z,1015.75
2018-10-17T07:18:24.130Z,1015.76
2018-10-17T07:19:24.107Z,1015.78
2018-10-17T07:20:24.092Z,1015.82
2018-10-17T07:21:24.067Z,1015.82
2018-10-17T07:22:24.053Z,1015.76
2018-10-17T07:23:24.027Z,1015.81
2018-10-17T07:24:24.055Z,1015.79
2018-10-17T07:25:23.986Z,1015.81
2018-10-17T07:26:23.970Z,1015.80
2018-10-17T07:27:23.946Z,1015.83
2018-10-17T07:28:23.923Z,1015.84
2018-10-17T07:29:24.042Z,1015.83
2018-10-17T07:30:23.896Z,1015.87
2018-10-17T07:31:23.863Z,1015.88
2018-10-17T07:32:23.840Z,1015.85
2018-10-17T07:33:23.826Z,1015.89
2018-10-17T07:34:23.798Z,1015.90
2018-10-17T07:35:23.779Z,1015.86
2018-10-17T07:36:23.763Z,1015.88
2018-10-17T07:37:23.735Z,1015.83
2018-10-17T07:38:23.717Z,1015.79
2018-10-17T07:39:23.696Z,1015.81
2018-10-17T07:40:23.680Z,1015.83
2018-10-17T07:41:23.669Z,1015.84
2018-10-17T07:42:23.634Z,1015.84
2018-10-17T07:43:23.622Z,1015.84
2018-10-17T07:44:23.596Z,1015.85
2018-10-17T07:45:23.635Z,1015.86
2018-10-17T07:46:23.553Z,1015.87
2018-10-17T07:47:23.534Z,1015.88
2018-10-17T07:48:23.516Z,1015.90
2018-10-17T07:49:23.495Z,1015.89
2018-10-17T07:50:23.471Z,1015.85
2018-10-17T07:51:23.461Z,1015.87
2018-10-17T07:52:23.434Z,1015.93
2018-10-17T07:53:23.475Z,1015.87
2018-10-17T07:54:23.393Z,1015.85
2018-10-17T07:55:23.379Z,1015.85
2018-10-17T07:56:23.352Z,1015.82
2018-10-17T07:57:23.334Z,1015.84
2018-10-17T07:58:23.316Z,1015.88
2018-10-17T07:59:23.293Z,1015.83
2018-10-17T08:00:23.349Z,1015.84
2018-10-17T08:01:23.255Z,1015.87
2018-10-17T08:02:23.235Z,1015.88
2018-10-17T08:03:23.215Z,1015.87
2018-10-17T08:04:23.196Z,1015.85
2018-10-17T08:05:23.173Z,1015.89
2018-10-17T08:06:23.214Z,1015.85
2018-10-17T08:07:23.137Z,1015.89
2018-10-17T08:08:23.118Z,1015.88
2018-10-17T08:09:23.093Z,1015.89
2018-10-17T08:10:23.078Z,1015.91
2018-10-17T08:11:23.055Z,1015.91
2018-10-17T08:12:23.120Z,1015.88
2018-10-17T08:13:23.018Z,1015.86
2018-10-17T08:14:23.000Z,1015.88
2018-10-17T08:15:22.979Z,1015.87
2018-10-17T08:16:22.957Z,1015.92
2018-10-17T08:17:22.940Z,1015.91
2018-10-17T08:18:22.923Z,1015.91
2018-10-17T08:19:22.913Z,1015.92
2018-10-17T08:20:22.884Z,1015.93
2018-10-17T08:21:22.924Z,1015.95
2018-10-17T08:22:22.843Z,1015.96
2018-10-17T08:23:22.825Z,1015.96
2018-10-17T08:24:22.803Z,1015.92
2018-10-17T08:25:22.792Z,1015.94
2018-10-17T08:26:22.765Z,1015.87
2018-10-17T08:27:22.794Z,1015.92
2018-10-17T08:28:22.733Z,1015.92
2018-10-17T08:29:22.709Z,1015.90
2018-10-17T08:30:22.691Z,1015.88
2018-10-17T08:31:22.773Z,1015.90
2018-10-17T08:32:22.651Z,1015.91
2018-10-17T08:33:22.639Z,1015.92
2018-10-17T08:34:22.616Z,1015.89
2018-10-17T08:35:22.651Z,1015.96
2018-10-17T08:36:22.771Z,1015.95
2018-10-17T08:37:23.038Z,1015.99
2018-10-17T08:38:22.545Z,1015.99
2018-10-17T08:39:22.524Z,1015.99
2018-10-17T08:40:22.501Z,1015.94
2018-10-17T08:41:22.572Z,1015.97
2018-10-17T08:42:22.467Z,1015.99
2018-10-17T08:43:22.453Z,1015.99
2018-10-17T08:44:22.429Z,1016.02
2018-10-17T08:45:22.414Z,1016.01
2018-10-17T08:46:22.403Z,1016.02
2018-10-17T08:47:22.379Z,1016.02
2018-10-17T08:48:22.361Z,1016.01
2018-10-17T08:49:22.341Z,1016.00
2018-10-17T08:50:22.323Z,1016.00
2018-10-17T08:51:22.304Z,1016.03
2018-10-17T08:52:22.290Z,1016.05
2018-10-17T08:53:22.275Z,1016.01
2018-10-17T08:54:22.254Z,1016.05
2018-10-17T08:55:22.239Z,1016.05
2018-10-17T08:56:22.215Z,1016.11
2018-10-17T08:57:22.199Z,1016.04
2018-10-17T08:58:22.182Z,1016.07
2018-10-17T08:59:22.163Z,1016.12
2018-10-17T09:00:22.147Z,1016.14
2018-10-17T09:01:22.131Z,1016.11
2018-10-17T09:02:22.112Z,1016.11
2018-10-17T09:03:22.093Z,1016.08
2018-10-17T09:04:22.078Z,1016.15
2018-10-17T09:05:22.060Z,1016.17
2018-10-17T09:06:22.043Z,1016.16
2018-10-17T09:07:22.028Z,1016.16
2018-10-17T09:08:22.117Z,1016.19
2018-10-17T09:09:21.997Z,1016.09
2018-10-17T09:10:21.981Z,1016.10
2018-10-17T09:11:21.965Z,1016.13
2018-10-17T09:12:21.951Z,1016.19
2018-10-17T09:13:21.988Z,1016.18
2018-10-17T09:14:21.919Z,1016.20
2018-10-17T09:15:21.893Z,1016.17
2018-10-17T09:16:22.053Z,1016.20
2018-10-17T09:17:21.864Z,1016.22
2018-10-17T09:18:21.845Z,1016.23
2018-10-17T09:19:21.927Z,1016.20
2018-10-17T09:20:22.061Z,1016.25
2018-10-17T09:21:22.218Z,1016.25
2018-10-17T09:22:21.971Z,1016.27
2018-10-17T09:23:21.780Z,1016.24
2018-10-17T09:24:21.757Z,1016.24
2018-10-17T09:25:21.741Z,1016.23
2018-10-17T09:26:21.726Z,1016.25
2018-10-17T09:27:21.712Z,1016.18
2018-10-17T09:28:21.697Z,1016.19
2018-10-17T09:29:21.678Z,1016.23
2018-10-17T09:30:21.798Z,1016.16
2018-10-17T09:31:21.646Z,1016.25
2018-10-17T09:32:21.633Z,1016.22
2018-10-17T09:33:21.618Z,1016.22
2018-10-17T09:34:21.605Z,1016.20
2018-10-17T09:35:21.620Z,1016.23
2018-10-17T09:36:21.577Z,1016.21
2018-10-17T09:37:21.560Z,1016.23
2018-10-17T09:38:21.550Z,1016.20
2018-10-17T09:39:21.535Z,1016.20
2018-10-17T09:40:21.519Z,1016.21
2018-10-17T09:41:21.503Z,1016.27
2018-10-17T09:42:21.573Z,1016.25
2018-10-17T09:43:21.533Z,1016.23
2018-10-17T09:44:21.459Z,1016.24
2018-10-17T09:45:21.454Z,1016.30
2018-10-17T09:46:21.435Z,1016.27
2018-10-17T09:47:21.423Z,1016.25
2018-10-17T09:48:21.408Z,1016.24
2018-10-17T09:49:21.430Z,1016.28
2018-10-17T09:50:21.383Z,1016.28
2018-10-17T09:51:21.368Z,1016.30
2018-10-17T09:52:21.358Z,1016.24
2018-10-17T09:53:21.417Z,1016.25
2018-10-17T09:54:21.381Z,1016.23
2018-10-17T09:55:21.320Z,1016.28
2018-10-17T09:56:21.308Z,1016.24
2018-10-17T09:57:21.296Z,1016.26
2018-10-17T09:58:21.280Z,1016.26
2018-10-17T09:59:21.410Z,1016.29
2018-10-17T10:00:21.255Z,1016.28
2018-10-17T10:01:21.249Z,1016.24
2018-10-17T10:02:21.372Z,1016.25
2018-10-17T10:03:21.219Z,1016.25
2018-10-17T10:04:21.333Z,1016.23
2018-10-17T10:05:21.209Z,1016.24
2018-10-17T10:06:21.182Z,1016.27
2018-10-17T10:07:21.170Z,1016.27
2018-10-17T10:08:21.175Z,1016.25
2018-10-17T10:09:21.220Z,1016.25
2018-10-17T10:10:21.138Z,1016.29
2018-10-17T10:11:21.127Z,1016.30
2018-10-17T10:12:21.113Z,1016.24
2018-10-17T10:13:21.110Z,1016.29
2018-10-17T10:14:21.199Z,1016.26
2018-10-17T10:15:21.081Z,1016.27
2018-10-17T10:16:21.073Z,1016.28
2018-10-17T10:17:21.218Z,1016.28
2018-10-17T10:18:21.043Z,1016.25
2018-10-17T10:19:21.120Z,1016.27
2018-10-17T10:20:21.024Z,1016.28
2018-10-17T10:21:21.010Z,1016.20
2018-10-17T10:22:21.009Z,1016.21
2018-10-17T10:23:20.997Z,1016.23
2018-10-17T10:24:21.112Z,1016.19
2018-10-17T10:25:21.047Z,1016.19
2018-10-17T10:26:20.968Z,1016.19
2018-10-17T10:27:20.955Z,1016.23
2018-10-17T10:28:21.073Z,1016.17
2018-10-17T10:29:20.932Z,1016.20
2018-10-17T10:30:21.011Z,1016.17
2018-10-17T10:31:20.915Z,1016.18
2018-10-17T10:32:20.901Z,1016.16
2018-10-17T10:33:20.897Z,1016.14
2018-10-17T10:34:21.077Z,1016.12
2018-10-17T10:35:20.879Z,1016.14
2018-10-17T10:36:20.866Z,1016.14
2018-10-17T10:37:20.861Z,1016.13
2018-10-17T10:38:20.850Z,1016.10
2018-10-17T10:39:20.840Z,1016.06
2018-10-17T10:40:20.831Z,1016.05
2018-10-17T10:41:20.830Z,1016.09
2018-10-17T10:42:20.813Z,1016.05
2018-10-17T10:43:20.805Z,1016.04
2018-10-17T10:44:20.958Z,1016.02
2018-10-17T10:45:20.988Z,1016.03
2018-10-17T10:46:20.788Z,1016.07
2018-10-17T10:47:20.775Z,1016.07
2018-10-17T10:48:20.780Z,1016.04
2018-10-17T10:49:20.817Z,1016.02
2018-10-17T10:50:20.819Z,1016.02
2018-10-17T10:51:20.798Z,1016.00
2018-10-17T10:52:20.737Z,1016.04
2018-10-17T10:53:20.726Z,1015.99
2018-10-17T10:54:20.848Z,1016.02
2018-10-17T10:55:20.714Z,1016.00
2018-10-17T10:56:20.702Z,1016.01
2018-10-17T10:57:20.699Z,1016.00
2018-10-17T10:58:20.760Z,1016.01
2018-10-17T10:59:20.815Z,1016.00
2018-10-17T11:00:20.769Z,1016.03
2018-10-17T11:01:20.664Z,1016.09
2018-10-17T11:02:20.657Z,1016.65
2018-10-17T11:03:20.651Z,1017.06
2018-10-17T11:04:20.647Z,1017.12
2018-10-17T11:05:20.787Z,1017.12
2018-10-17T11:06:20.630Z,1017.10
2018-10-17T11:07:20.625Z,1017.00
2018-10-17T11:08:20.617Z,1017.00
2018-10-17T11:09:20.613Z,1017.00
2018-10-17T11:10:20.605Z,1016.97
2018-10-17T11:11:20.643Z,1016.95
2018-10-17T11:12:20.585Z,1016.92
2018-10-17T11:13:20.583Z,1016.92
2018-10-17T11:14:20.809Z,1016.91
2018-10-17T11:15:20.569Z,1017.03
2018-10-17T11:16:20.564Z,1017.07
2018-10-17T11:17:20.564Z,1016.94
2018-10-17T11:18:20.551Z,1016.92
2018-10-17T11:19:20.545Z,1016.90
2018-10-17T11:20:20.543Z,1016.86
2018-10-17T11:21:20.535Z,1016.94
2018-10-17T11:22:20.528Z,1016.93
2018-10-17T11:23:20.620Z,1016.95
2018-10-17T11:24:20.519Z,1016.97
2018-10-17T11:25:20.514Z,1017.03
2018-10-17T11:26:20.506Z,1016.90
2018-10-17T11:27:20.505Z,1016.84
2018-10-17T11:28:20.494Z,1016.85
2018-10-17T11:29:20.493Z,1016.88
2018-10-17T11:30:20.485Z,1016.97
2018-10-17T11:31:20.527Z,1016.95
2018-10-17T11:32:20.480Z,1016.97
2018-10-17T11:33:20.473Z,1016.93
2018-10-17T11:34:20.465Z,1016.94
2018-10-17T11:35:20.457Z,1016.91
2018-10-17T11:36:20.456Z,1016.85
2018-10-17T11:37:20.530Z,1016.84
2018-10-17T11:38:20.443Z,1016.80
2018-10-17T11:39:20.441Z,1016.73
2018-10-17T11:40:20.502Z,1016.83
2018-10-17T11:41:20.585Z,1016.75
2018-10-17T11:42:20.423Z,1016.64
2018-10-17T11:43:20.422Z,1016.70
2018-10-17T11:44:20.419Z,1016.66
2018-10-17T11:45:20.414Z,1016.65
2018-10-17T11:46:20.412Z,1016.68
2018-10-17T11:47:20.405Z,1016.69
2018-10-17T11:48:20.403Z,1016.85
2018-10-17T11:49:20.396Z,1016.91
2018-10-17T11:50:20.440Z,1016.79
2018-10-17T11:51:20.388Z,1016.72
2018-10-17T11:52:20.383Z,1016.63
2018-10-17T11:53:20.377Z,1016.66
2018-10-17T11:54:20.373Z,1016.63
2018-10-17T11:55:20.377Z,1016.65
2018-10-17T11:56:20.365Z,1016.54
2018-10-17T11:57:20.421Z,1016.37
2018-10-17T11:58:20.359Z,1016.42
2018-10-17T11:59:20.473Z,1016.53
2018-10-17T12:00:20.352Z,1016.59
2018-10-17T12:01:20.351Z,1016.42
2018-10-17T12:02:20.338Z,1016.05
2018-10-17T12:03:20.404Z,1015.72
2018-10-17T12:04:20.644Z,1015.50
2018-10-17T12:05:20.523Z,1015.45